Time;durP1;ratioP1;P1;durP2;ratioP2;P2;SDS_P1;SDS_P2;PMS_P1;PMS_P2;Temp;Humidity;BMP_temperature;BMP_pressure;BME280_temperature;BME280_humidity;BME280_pressure;Samples;Min_cycle;Max_cycle;Signal;HPM_P1;HPM_P2
2023/12/15 00:01:31;;;;;;;42.88;18.45;;;;;;;-144.05;80.96;57046.38;5035553;28;20486;-78
2023/12/15 00:03:57;;;;;;;38.35;17.13;;;;;;;-144.05;81.27;57071.84;5040038;28;20041;-79
2023/12/15 00:06:23;;;;;;;38.42;16.73;;;;;;;-144.05;81.87;57067.59;5035178;28;20110;-78
2023/12/15 00:08:50;;;;;;;39.65;17.20;;;;;;;-144.05;81.83;57018.75;5035214;28;20022;-78
2023/12/15 00:11:16;;;;;;;38.53;17.17;;;;;;;-144.05;81.59;57065.47;5035048;28;20048;-77
2023/12/15 00:13:42;;;;;;;42.17;18.13;;;;;;;-144.05;81.87;57050.63;5034789;28;20204;-79
2023/12/15 00:16:08;;;;;;;47.05;18.90;;;;;;;-144.05;82.15;57078.22;5034734;28;20017;-79
2023/12/15 00:18:35;;;;;;;39.63;18.65;;;;;;;-144.05;82.32;57073.97;5048783;28;20471;-76
2023/12/15 00:21:01;;;;;;;43.58;18.05;;;;;;;-144.05;82.86;57044.25;5034638;28;20102;-77
2023/12/15 00:23:27;;;;;;;38.45;16.88;;;;;;;-144.05;82.37;57067.59;5034829;28;20496;-77
2023/12/15 00:25:53;;;;;;;37.85;17.20;;;;;;;-144.05;82.24;57031.50;5016539;28;20163;-78
2023/12/15 00:28:20;;;;;;;32.97;16.33;;;;;;;-144.05;81.97;57065.47;5034429;28;20091;-78
2023/12/15 00:30:46;;;;;;;39.45;18.05;;;;;;;-144.05;82.21;57027.25;5034165;28;20037;-78
2023/12/15 00:33:12;;;;;;;43.67;17.67;;;;;;;-144.05;82.32;57033.63;5034076;28;20025;-76
2023/12/15 00:35:38;;;;;;;39.67;16.55;;;;;;;-144.05;82.27;57052.75;5034390;28;20036;-77
2023/12/15 00:38:05;;;;;;;40.25;17.20;;;;;;;-144.05;82.16;57035.75;5034604;28;20029;-78
2023/12/15 00:40:31;;;;;;;34.72;16.73;;;;;;;-144.05;82.33;57073.97;5033047;28;20029;-76
2023/12/15 00:42:57;;;;;;;42.30;17.85;;;;;;;-144.05;82.06;57029.38;5031795;28;20030;-77
2023/12/15 00:45:23;;;;;;;39.55;18.08;;;;;;;-144.05;82.09;57035.75;5013881;28;20448;-78
2023/12/15 00:47:50;;;;;;;44.40;17.60;;;;;;;-144.05;82.08;57082.47;5031293;28;20021;-76
2023/12/15 00:50:16;;;;;;;41.90;18.55;;;;;;;-144.05;82.27;57069.72;5031315;28;20037;-78
2023/12/15 00:52:42;;;;;;;35.88;17.42;;;;;;;-144.05;81.91;57044.25;5031318;28;20083;-77
2023/12/15 00:55:09;;;;;;;41.40;16.95;;;;;;;-144.05;81.76;57052.75;5031740;28;20025;-78
2023/12/15 00:57:35;;;;;;;41.38;16.00;;;;;;;-144.05;81.76;57054.88;5031480;28;20036;-78
2023/12/15 01:00:02;;;;;;;42.42;17.27;;;;;;;-144.05;81.72;57025.13;5030794;28;20598;-76
2023/12/15 01:02:28;;;;;;;38.08;18.38;;;;;;;-144.05;81.75;57023.00;5029892;28;20030;-76
2023/12/15 01:04:54;;;;;;;37.50;17.10;;;;;;;-144.05;81.55;57040.00;5013556;28;20021;-79
2023/12/15 01:07:20;;;;;;;40.97;19.98;;;;;;;-144.05;81.41;57061.22;5031531;28;20032;-78
2023/12/15 01:09:47;;;;;;;37.63;16.63;;;;;;;-144.05;81.41;57054.88;5031232;28;20375;-78
2023/12/15 01:12:13;;;;;;;39.13;17.15;;;;;;;-144.05;81.19;57044.25;5031147;28;20072;-78
2023/12/15 01:14:39;;;;;;;38.25;17.95;;;;;;;-144.05;81.71;57035.75;5013298;28;20048;-79
2023/12/15 01:17:05;;;;;;;37.20;16.23;;;;;;;-144.05;81.60;57016.63;5031207;28;20037;-78
2023/12/15 01:19:33;;;;;;;35.63;15.93;;;;;;;-144.05;81.61;57031.50;5031320;28;20099;-78
2023/12/15 01:21:59;;;;;;;33.75;15.95;;;;;;;-144.05;81.37;57044.25;5031288;28;20105;-78
2023/12/15 01:24:25;;;;;;;35.10;16.00;;;;;;;-144.05;81.16;57063.34;5030988;28;20055;-77
2023/12/15 01:26:52;;;;;;;37.53;17.60;;;;;;;-144.05;81.56;57050.63;5013560;28;20025;-76
2023/12/15 01:29:18;;;;;;;39.47;17.60;;;;;;;-144.05;81.06;57040.00;5031119;28;20467;-78
2023/12/15 01:31:45;;;;;;;39.55;17.92;;;;;;;-144.05;81.21;57029.38;5077767;22;20312;-78
2023/12/15 01:34:11;;;;;;;34.83;16.83;;;;;;;-144.05;81.34;57031.50;5069973;28;20534;-80
2023/12/15 01:36:37;;;;;;;38.58;18.65;;;;;;;-144.05;81.39;57059.09;5058443;28;20028;-78
2023/12/15 01:39:04;;;;;;;37.25;16.90;;;;;;;-144.05;81.58;57020.88;5076784;28;20092;-79
2023/12/15 01:41:31;;;;;;;38.65;18.02;;;;;;;-144.05;81.72;57033.63;5067161;28;20047;-78
2023/12/15 01:43:57;;;;;;;43.00;18.20;;;;;;;-144.05;82.08;57056.97;5056790;28;20111;-81
2023/12/15 01:46:24;;;;;;;35.72;16.60;;;;;;;-144.05;82.01;57046.38;5055667;28;20029;-78
2023/12/15 01:48:51;;;;;;;36.53;16.40;;;;;;;-144.05;81.92;57027.25;5056771;28;20021;-79
2023/12/15 01:51:17;;;;;;;40.88;17.80;;;5.90;99.90;;;-144.05;82.20;57061.22;5029973;28;20025;-80
2023/12/15 01:53:44;;;;;;;41.88;17.92;;;;;;;-144.05;81.89;57040.00;5055641;28;20033;-80
2023/12/15 01:56:10;;;;;;;37.38;16.42;;;;;;;-144.05;82.66;57040.00;5054150;28;20480;-78
2023/12/15 01:58:36;;;;;;;42.35;18.10;;;;;;;-144.05;82.31;57052.75;5056021;28;20382;-79
2023/12/15 02:01:04;;;;;;;41.60;17.90;;;;;;;-144.05;81.83;57035.75;5056183;28;20112;-79
2023/12/15 02:03:31;;;;;;;42.88;18.08;;;;;;;-144.05;81.81;57031.50;5037432;28;20032;-79
2023/12/15 02:05:57;;;;;;;37.55;18.00;;;;;;;-144.05;82.12;57054.88;5054142;28;20051;-80
2023/12/15 02:08:23;;;;;;;40.25;17.27;;;;;;;-144.05;82.39;57042.13;5036695;28;20072;-79
2023/12/15 02:10:49;;;;;;;41.45;18.75;;;;;;;-144.05;82.71;57078.22;5052156;28;20093;-78
2023/12/15 02:13:16;;;;;;;40.55;18.15;;;;;;;-144.05;82.51;57033.63;5042219;28;20422;-78
2023/12/15 02:15:42;;;;;;;39.45;17.98;;;;;;;-144.05;83.06;57052.75;5058044;28;20029;-78
2023/12/15 02:18:08;;;;;;;40.25;17.13;;;;;;;-144.05;82.79;57048.50;5039590;28;20089;-78
2023/12/15 02:20:34;;;;;;;39.13;18.05;;;;;;;-144.05;82.72;57046.38;5044030;28;20093;-79
2023/12/15 02:23:00;;;;;;;37.97;16.83;;;;;;;-144.05;82.96;57040.00;5055091;28;20108;-77
2023/12/15 02:25:27;;;;;;;37.13;16.92;;;;;;;-144.05;82.88;57018.75;5044012;28;20029;-78
2023/12/15 02:27:53;;;;;;;39.05;18.10;;;;;;;-144.05;82.74;57027.25;5054686;28;20021;-78
2023/12/15 02:30:20;;;;;;;36.20;18.05;;;;;;;-144.05;82.53;57048.50;5039565;28;20390;-79
2023/12/15 02:32:46;;;;;;;40.78;17.80;;;;;;;-144.05;82.36;57003.88;5048810;28;20628;-78
2023/12/15 02:35:14;;;;;;;35.65;16.77;;;;;;;-144.05;82.40;57025.13;5039690;28;20048;-79
2023/12/15 02:37:40;;;;;;;34.20;17.13;;;;;;;-144.05;82.54;57025.13;5039682;28;20033;-79
2023/12/15 02:40:07;;;;;;;42.35;17.70;;;;;;;-144.05;82.53;57044.25;5039193;28;20025;-79
2023/12/15 02:42:33;;;;;;;36.67;18.20;;;;;;;-144.05;82.47;57061.22;5039305;28;20028;-79
2023/12/15 02:45:01;;;;;;;34.38;17.55;;;;;;;-144.05;82.57;57050.63;5040201;28;20075;-78
2023/12/15 02:47:28;;;;;;;40.40;17.02;;;;;;;-144.05;82.55;57016.63;5040178;28;20403;-78
2023/12/15 02:49:54;;;;;;;40.40;19.15;;;;;;;-144.05;83.00;57031.50;5057572;28;20035;-79
2023/12/15 02:52:21;;;;;;;35.50;17.42;;;;;;;-144.05;82.84;57046.38;5040757;28;20036;-78
2023/12/15 02:54:47;;;;;;;39.13;17.30;;;;;;;-144.05;82.74;57056.97;5061765;28;20032;-77
2023/12/15 02:57:13;;;;;;;35.42;17.88;;;;;;;-144.05;83.06;57044.25;5061460;28;20077;-79
2023/12/15 02:59:40;;;;;;;38.90;18.42;;;;;;;-144.05;82.88;57027.25;5040885;28;20129;-79
2023/12/15 03:02:06;;;;;;;37.38;17.75;;;;;;;-144.05;83.14;57031.50;5051211;28;20033;-80
2023/12/15 03:04:32;;;;;;;37.53;19.05;;;;;;;-144.05;83.26;57059.09;5058452;28;20075;-80
2023/12/15 03:06:59;;;;;;;41.90;19.27;;;;;;;-144.05;83.23;57027.25;5059111;28;20032;-80
2023/12/15 03:09:25;;;;;;;40.78;18.48;;;;;;;-144.05;83.10;57025.13;5056630;28;20017;-79
2023/12/15 03:11:51;;;;;;;38.15;18.95;;;;;;;-144.05;83.56;56997.50;5057597;28;20036;-80
2023/12/15 03:14:17;;;;;;;37.58;18.25;;;;;;;-144.05;82.90;57018.75;5038905;28;20029;-78
2023/12/15 03:16:44;;;;;;;37.42;19.02;;;;;;;-144.05;82.96;57031.50;5056115;28;20137;-79
2023/12/15 03:19:10;;;;;;;42.92;20.85;;;;;;;-144.05;82.94;57048.50;5037976;28;20029;-79
2023/12/15 03:21:36;;;;;;;38.78;18.55;;;;;;;-144.05;82.75;57035.75;5038998;28;20135;-78
2023/12/15 03:24:03;;;;;;;38.05;18.70;;;;;;;-144.05;82.28;57023.00;5039840;28;20056;-79
2023/12/15 03:26:29;;;;;;;38.80;19.42;;;;;;;-144.05;82.37;57042.13;5048927;28;20052;-79
2023/12/15 03:28:55;;;;;;;37.03;19.05;;;;;;;-144.05;82.30;57014.50;5055104;28;20025;-78
2023/12/15 03:31:22;;;;;;;41.33;19.23;;;;;;;-144.05;82.22;57056.97;5056826;28;20735;-78
2023/12/15 03:33:48;;;;;;;42.38;19.27;;;;;;;-144.05;82.66;57044.25;5047637;28;20044;-79
2023/12/15 03:36:14;;;;;;;39.25;18.40;;;;;;;-144.05;82.84;57044.25;5056299;28;20390;-80
2023/12/15 03:38:40;;;;;;;36.55;19.58;;;;;;;-144.05;82.72;57029.38;5021398;28;20094;-78
2023/12/15 03:41:06;;;;;;;38.65;19.45;;;;;;;-144.05;82.87;57042.13;5054378;28;20024;-79
2023/12/15 03:43:33;;;;;;;37.72;20.15;;;;;;;-144.05;82.88;57059.09;5036984;28;20029;-78
2023/12/15 03:46:01;;;;;;;39.67;20.00;;;;;;;-144.05;82.85;57023.00;5055159;28;20029;-78
2023/12/15 03:48:27;;;;;;;44.28;19.75;;;;;;;-144.05;82.46;57029.38;5054311;28;20047;-78
2023/12/15 03:50:54;;;;;;;39.97;20.45;;;6.70;99.90;;;-144.05;82.69;57033.63;5053804;28;20039;-78
2023/12/15 03:53:21;;;;;;;40.72;19.80;;;;;;;-144.05;83.06;57033.63;5053972;28;20032;-77
2023/12/15 03:55:47;;;;;;;41.38;18.90;;;;;;;-144.05;83.34;57035.75;5028064;28;20056;-79
2023/12/15 03:58:13;;;;;;;38.60;21.52;;;;;;;-144.05;83.13;57042.13;5053445;28;20122;-79
2023/12/15 04:00:39;;;;;;;39.80;18.77;;;;;;;-144.05;82.84;56997.50;5053527;28;20033;-79
2023/12/15 04:03:05;;;;;;;34.55;18.63;;;;;;;-144.05;82.88;57023.00;5054767;28;20044;-78
2023/12/15 04:05:32;;;;;;;35.65;19.10;;;;;;;-144.05;83.27;57023.00;5054865;28;20025;-78
2023/12/15 04:07:59;;;;;;;37.03;19.52;;;;;;;-144.05;83.71;57029.38;5052442;28;20021;-79
2023/12/15 04:10:25;;;;;;;38.67;19.90;;;;;;;-144.05;83.77;57035.75;5040679;28;20059;-77
2023/12/15 04:12:51;;;;;;;39.13;19.92;;;;;;;-144.05;83.80;57046.38;5037336;28;20047;-78
2023/12/15 04:15:19;;;;;;;33.95;18.85;;;;;;;-144.05;83.96;57056.97;5054388;28;20494;-77
2023/12/15 04:17:45;;;;;;;35.28;19.40;;;;;;;-144.05;83.71;57016.63;5055071;28;20033;-80
2023/12/15 04:20:12;;;;;;;36.10;20.17;;;;;;;-144.05;84.04;57029.38;5035666;28;20071;-79
2023/12/15 04:22:39;;;;;;;35.50;20.13;;;;;;;-144.05;84.41;57067.59;5036501;28;20297;-81
2023/12/15 04:25:05;;;;;;;36.70;18.83;;;;;;;-144.05;84.56;57037.88;5032880;28;20025;-79
2023/12/15 04:27:31;;;;;;;34.92;19.00;;;;;;;-144.05;84.68;57040.00;5048520;28;20443;-78
2023/12/15 04:29:57;;;;;;;40.38;19.02;;;;;;;-144.05;84.35;57008.13;5053853;28;20029;-79
2023/12/15 04:32:24;;;;;;;40.88;20.75;;;;;;;-144.05;84.14;57014.50;5054204;28;20418;-78
2023/12/15 04:34:50;;;;;;;40.30;20.77;;;;;;;-144.05;84.26;57040.00;5053558;28;20435;-79
2023/12/15 04:37:16;;;;;;;38.22;19.00;;;;;;;-144.05;84.76;57012.38;5036878;28;20025;-78
2023/12/15 04:39:44;;;;;;;44.35;21.48;;;;;;;-144.05;84.80;57027.25;5039027;28;20044;-80
2023/12/15 04:42:10;;;;;;;39.33;20.83;;;;;;;-144.05;84.66;57006.00;5038809;28;20111;-80
2023/12/15 04:44:36;;;;;;;41.63;20.55;;;;;;;-144.05;84.44;57042.13;5056666;28;20055;-80
2023/12/15 04:47:03;;;;;;;40.22;20.65;;;;;;;-144.05;85.00;57020.88;5039805;28;20039;-81
2023/12/15 04:49:29;;;;;;;37.17;20.10;;;;;;;-144.05;85.41;57061.22;5061015;28;20070;-82
2023/12/15 04:51:56;;;;;;;39.42;19.65;;;;;;;-144.05;85.31;57014.50;5059789;28;20028;-85
2023/12/15 04:54:22;;;;;;;37.17;18.73;;;;;;;-144.05;85.22;57044.25;5060964;28;20089;-82
2023/12/15 04:56:48;;;;;;;37.67;19.92;;;;;;;-144.05;85.12;57035.75;5064294;28;20032;-87
2023/12/15 04:59:15;;;;;;;41.28;19.27;;;;;;;-144.05;85.43;57023.00;5061742;28;20025;-80
2023/12/15 05:01:43;;;;;;;38.05;18.23;;;;;;;-144.05;85.32;57033.63;5059101;28;20035;-82
2023/12/15 05:04:10;;;;;;;36.03;18.80;;;;;;;-144.05;85.07;57033.63;5053012;28;20061;-79
2023/12/15 05:06:36;;;;;;;36.22;19.50;;;;;;;-144.05;85.79;57046.38;5054040;28;20028;-79
2023/12/15 05:09:08;;;;;;;37.05;19.00;;;;;;;-144.05;85.92;57044.25;5058443;28;20056;-80
2023/12/15 05:11:35;;;;;;;40.60;19.58;;;;;;;-144.05;85.72;57016.63;5039403;28;20029;-80
2023/12/15 05:14:02;;;;;;;37.25;19.15;;;;;;;-144.05;85.54;57040.00;5037758;28;20040;-79
2023/12/15 05:16:32;;;;;;;39.15;19.13;;;6.50;99.90;;;-144.05;85.60;57044.25;5055995;28;20466;-80
2023/12/15 05:18:58;;;;;;;39.75;19.33;;;;;;;-144.05;85.53;57033.63;5053405;28;20175;-78
2023/12/15 05:21:24;;;;;;;42.58;19.48;;;;;;;-144.05;85.85;57014.50;5055659;28;20035;-79
2023/12/15 05:23:51;;;;;;;37.92;19.02;;;;;;;-144.05;86.17;57027.25;5056103;28;20033;-80
2023/12/15 05:26:17;;;;;;;35.88;18.02;;;;;;;-144.05;85.68;57035.75;5029848;28;20074;-79
2023/12/15 05:28:44;;;;;;;39.42;19.25;;;;;;;-144.05;86.05;57033.63;5055739;28;20444;-79
2023/12/15 05:31:10;;;;;;;37.28;18.88;;;;;;;-144.05;85.89;57071.84;5037732;28;20454;-79
2023/12/15 05:33:37;;;;;;;37.03;19.05;;;;;;;-144.05;86.02;57023.00;5038163;28;20116;-78
2023/12/15 05:36:03;;;;;;;39.83;17.98;;;;;;;-144.05;86.21;57016.63;5037598;28;20100;-79
2023/12/15 05:38:29;;;;;;;37.22;18.63;;;;;;;-144.05;85.75;57042.13;5036481;28;20033;-80
2023/12/15 05:40:56;;;;;;;40.70;19.05;;;;;;;-144.05;86.45;57035.75;5045078;28;20120;-78
2023/12/15 05:43:22;;;;;;;39.28;18.95;;;;;;;-144.05;86.04;57023.00;5047372;28;20040;-80
2023/12/15 05:45:48;;;;;;;41.33;18.77;;;;;;;-144.05;86.27;57014.50;5052815;28;20402;-79
2023/12/15 05:48:14;;;;;;;41.33;18.38;;;;;;;-144.05;86.21;57023.00;5046833;28;20374;-80
2023/12/15 05:50:40;;;;;;;34.35;17.58;;;;;;;-144.05;86.50;57010.25;5058224;28;20063;-79
2023/12/15 05:53:07;;;;;;;33.92;17.63;;;;;;;-144.05;85.87;57018.75;5058162;28;20547;-81
2023/12/15 05:55:33;;;;;;;37.42;18.98;;;;;;;-144.05;85.86;57012.38;5039802;28;20032;-80
2023/12/15 05:57:59;;;;;;;37.40;18.02;;;;;;;-144.05;86.30;57031.50;5040482;28;20068;-79
2023/12/15 06:00:25;;;;;;;36.53;18.90;;;;;;;-144.05;86.85;57033.63;5058907;28;20025;-79
2023/12/15 06:02:51;;;;;;;34.17;17.38;;;;;;;-144.05;86.07;57029.38;5059031;28;20067;-79
2023/12/15 06:05:18;;;;;;;40.08;18.58;;;;;;;-144.05;86.62;57040.00;5050945;28;20077;-78
2023/12/15 06:07:44;;;;;;;41.83;18.92;;;;;;;-144.05;86.60;57050.63;5059189;28;20025;-78
2023/12/15 06:10:10;;;;;;;44.63;19.30;;;;;;;-144.05;86.87;57023.00;5057523;28;20021;-80
2023/12/15 06:12:37;;;;;;;42.75;20.90;;;;;;;-144.05;86.34;57023.00;5063761;28;20052;-80
2023/12/15 06:15:05;;;;;;;41.15;19.88;;;;;;;-144.05;86.83;57035.75;5043338;28;20040;-79
2023/12/15 06:17:32;;;;;;;45.95;19.13;;;;;;;-144.05;86.52;57035.75;5043563;28;20040;-79
2023/12/15 06:19:58;;;;;;;43.70;20.27;;;;;;;-144.05;86.35;57014.50;5061651;28;20029;-80
2023/12/15 06:22:24;;;;;;;50.40;21.10;;;;;;;-144.05;87.32;57027.25;5037083;28;20022;-80
2023/12/15 06:24:50;;;;;;;47.10;20.75;;;;;;;-144.05;86.77;57029.38;5057237;28;20051;-80
2023/12/15 06:27:17;;;;;;;44.58;19.67;;;;;;;-144.05;87.27;57054.88;5055681;28;20096;-81
2023/12/15 06:29:43;;;;;;;45.80;20.73;;;;;;;-144.05;86.97;57029.38;5062033;28;20025;-81
2023/12/15 06:32:10;;;;;;;42.10;20.23;;;;;;;-144.05;87.84;57027.25;5043405;28;20055;-79
2023/12/15 06:34:40;;;;;;;49.80;21.55;;;;;;;-144.05;87.25;57029.38;5060294;28;20036;-79
2023/12/15 06:37:06;;;;;;;48.78;23.10;;;;;;;-144.05;87.15;57035.75;5060302;28;20048;-80
2023/12/15 06:39:32;;;;;;;47.00;22.08;;;;;;;-144.05;87.11;57035.75;5066866;28;20009;-80
2023/12/15 06:41:59;;;;;;;50.67;22.40;;;;;;;-144.05;87.00;57052.75;5062928;28;20025;-79
2023/12/15 06:44:25;;;;;;;50.58;21.30;;;;;;;-144.05;87.31;57033.63;5053903;28;20028;-80
2023/12/15 06:46:52;;;;;;;49.25;21.08;;;;;;;-144.05;87.24;57065.47;5069064;28;20052;-78
2023/12/15 06:49:19;;;;;;;50.25;22.70;;;;;;;-144.05;87.62;57056.97;5060130;28;20025;-80
2023/12/15 06:51:46;;;;;;;50.20;22.05;;;;;;;-144.05;87.27;57031.50;5058631;28;20029;-80
2023/12/15 06:54:12;;;;;;;48.58;21.17;;;;;;;-144.05;87.29;57027.25;5058801;28;20045;-80
2023/12/15 06:56:39;;;;;;;55.17;22.52;;;;;;;-144.05;87.32;57008.13;5059668;28;20029;-79
2023/12/15 06:59:05;;;;;;;54.30;23.42;;;;;;;-144.05;87.26;57029.38;5059879;28;20029;-78
2023/12/15 07:01:31;;;;;;;52.05;23.27;;;;;;;-144.05;87.43;57048.50;5068186;28;20044;-79
2023/12/15 07:03:57;;;;;;;50.25;22.40;;;;;;;-144.05;87.52;57029.38;5061925;28;20093;-81
2023/12/15 07:06:24;;;;;;;51.15;23.23;;;;;;;-144.05;87.35;57003.88;5045043;28;20043;-80
2023/12/15 07:08:53;;;;;;;61.47;24.92;;;;;;;-144.05;87.27;57035.75;5060775;28;20063;-80
2023/12/15 07:11:20;;;;;;;58.53;23.92;;;;;;;-144.05;87.53;57031.50;5058465;28;20090;-80
2023/12/15 07:13:47;;;;;;;55.47;23.52;;;;;;;-144.05;87.33;57001.75;5058733;28;20036;-80
2023/12/15 07:16:13;;;;;;;64.10;24.42;;;;;;;-144.05;87.87;57042.13;5058651;28;20033;-80
2023/12/15 07:18:39;;;;;;;60.35;22.92;;;;;;;-144.05;87.84;57054.88;5058619;28;20187;-81
2023/12/15 07:21:06;;;;;;;59.58;23.88;;;;;;;-144.05;87.86;57006.00;5057930;28;20481;-79
2023/12/15 07:23:33;;;;;;;59.92;24.35;;;;;;;-144.05;87.31;57040.00;5057301;28;20033;-79
2023/12/15 07:26:00;;;;;;;58.03;22.77;;;;;;;-144.05;87.63;57027.25;5040244;28;20037;-80
2023/12/15 07:28:26;;;;;;;57.47;24.63;;;;;;;-144.05;87.45;57044.25;5058209;28;20028;-79
2023/12/15 07:30:52;;;;;;;65.97;25.38;;;;;;;-144.05;87.92;57031.50;5073316;22;20033;-77
2023/12/15 07:33:19;;;;;;;63.15;25.38;;;;;;;-144.05;87.50;57023.00;5059316;28;20052;-79
2023/12/15 07:35:45;;;;;;;65.18;26.05;;;;;;;-144.05;87.20;57016.63;5057689;28;20032;-77
2023/12/15 07:38:11;;;;;;;70.75;25.85;;;;;;;-144.05;87.43;57035.75;5064326;28;20474;-77
2023/12/15 07:40:37;;;;;;;64.97;25.35;;;;;;;-144.05;87.71;57023.00;5046659;28;20032;-76
2023/12/15 07:43:03;;;;;;;72.18;25.98;;;;;;;-144.05;88.12;56995.38;5048506;28;20033;-77
2023/12/15 07:45:30;;;;;;;56.72;25.10;;;;;;;-144.05;88.07;57048.50;5049305;28;20029;-77
2023/12/15 07:47:56;;;;;;;69.05;25.98;;;;;;;-144.05;88.19;57048.50;5046357;28;20033;-77
2023/12/15 07:50:23;;;;;;;63.33;24.92;;;;;;;-144.05;88.14;57016.63;5038158;28;20549;-78
2023/12/15 07:52:49;;;;;;;63.38;24.67;;;;;;;-144.05;88.35;57031.50;5038856;28;20043;-76
2023/12/15 07:55:17;;;;;;;67.00;25.02;;;;;;;-144.05;88.40;57020.88;5038134;28;20389;-78
2023/12/15 07:57:44;;;;;;;65.40;25.70;;;;;;;-144.05;88.09;57018.75;5055208;28;20024;-78
2023/12/15 08:00:13;;;;;;;72.88;26.23;;;6.40;99.90;;;-144.05;87.92;57025.13;5058934;28;20454;-77
2023/12/15 08:02:39;;;;;;;69.20;25.83;;;;;;;-144.05;88.46;57020.88;5057948;28;20064;-80
2023/12/15 08:05:06;;;;;;;64.18;25.35;;;;;;;-144.05;88.27;57052.75;5055768;28;20128;-78
2023/12/15 08:07:32;;;;;;;68.43;26.63;;;;;;;-144.05;87.97;57031.50;5055041;28;20103;-79
2023/12/15 08:09:58;;;;;;;66.88;25.27;;;;;;;-144.05;88.02;57001.75;5036397;28;20058;-79
2023/12/15 08:12:25;;;;;;;66.53;24.48;;;;;;;-144.05;87.57;57044.25;5037201;28;20024;-78
2023/12/15 08:14:51;;;;;;;66.13;25.30;;;;;;;-144.05;88.06;57044.25;5055158;28;20504;-79
2023/12/15 08:17:17;;;;;;;71.90;27.40;;;;;;;-144.05;88.25;57040.00;5071608;28;20017;-79
2023/12/15 08:19:44;;;;;;;61.88;23.90;;;;;;;-144.05;88.49;57020.88;5052999;28;20086;-77
2023/12/15 08:22:11;;;;;;;70.43;27.08;;;;;;;-144.05;88.98;57040.00;5048982;28;20367;-77
2023/12/15 08:24:37;;;;;;;71.18;26.35;;;;;;;-144.05;88.01;57023.00;5042911;28;20044;-78
2023/12/15 08:27:04;;;;;;;65.68;24.85;;;;;;;-144.05;88.00;57014.50;5046804;28;20048;-79
2023/12/15 08:29:30;;;;;;;70.93;26.08;;;;;;;-144.05;88.27;57035.75;5054225;28;20040;-80
2023/12/15 08:31:57;;;;;;;68.65;27.13;;;;;;;-144.05;88.52;57023.00;5054479;28;20056;-78
2023/12/15 08:34:23;;;;;;;72.80;26.80;;;;;;;-144.05;87.90;57027.25;5053362;28;20029;-78
2023/12/15 08:36:49;;;;;;;73.20;23.77;;;;;;;-144.05;88.47;57031.50;5053417;28;20037;-77
2023/12/15 08:39:16;;;;;;;65.97;25.63;;;;;;;-144.05;88.43;57044.25;5044030;28;20061;-79
2023/12/15 08:41:42;;;;;;;72.53;26.02;;;;;;;-144.05;88.61;57020.88;5036796;28;20029;-79
2023/12/15 08:44:08;;;;;;;66.82;25.30;;;;;;;-144.05;88.62;57029.38;5053645;28;20089;-79
2023/12/15 08:46:35;;;;;;;68.20;24.73;;;;;;;-144.05;88.76;57006.00;5048412;28;20044;-79
2023/12/15 08:49:01;;;;;;;69.57;25.02;;;;;;;-144.05;88.19;57023.00;5060281;28;20021;-79
2023/12/15 08:51:28;;;;;;;73.20;25.67;;;;;;;-144.05;88.37;57029.38;5061219;28;20501;-81
2023/12/15 08:53:54;;;;;;;73.45;25.13;;;;;;;-144.05;87.98;57018.75;5039766;28;20033;-77
2023/12/15 08:56:20;;;;;;;76.22;25.55;;;;;;;-144.05;88.56;57052.75;5053662;28;20029;-76
2023/12/15 08:58:46;;;;;;;74.70;26.60;;;;;;;-144.05;88.63;57025.13;5035592;28;20032;-78
2023/12/15 09:01:13;;;;;;;71.00;25.05;;;;;;;-144.05;87.91;57016.63;5053749;28;20039;-78
2023/12/15 09:03:39;;;;;;;61.35;23.55;;;;;;;-144.05;87.50;57048.50;5053372;28;20037;-81
2023/12/15 09:06:10;;;;;;;76.43;26.35;;;;;;;-144.05;87.12;57048.50;5054417;28;20036;-77
2023/12/15 09:08:38;;;;;;;75.57;26.77;;;;;;;-144.05;87.07;57048.50;5038206;28;20052;-77
2023/12/15 09:11:05;;;;;;;70.32;26.17;;;6.60;99.90;;;-144.05;87.50;57052.75;5037869;28;20032;-77
2023/12/15 09:13:34;;;;;;;67.53;25.60;;;6.80;99.90;;;-144.05;87.30;57020.88;5054196;28;20466;-78
2023/12/15 09:16:00;;;;;;;71.75;25.73;;;;;;;-144.05;87.33;57023.00;5046357;28;20108;-79
2023/12/15 09:18:27;;;;;;;81.00;26.98;;;;;;;-144.05;86.84;57031.50;5037381;28;20025;-77
2023/12/15 09:20:53;;;;;;;70.15;25.70;;;;;;;-144.05;86.92;57035.75;5036238;28;20450;-79
2023/12/15 09:23:19;;;;;;;69.30;24.88;;;;;;;-144.05;86.70;57016.63;5054755;28;20029;-79
2023/12/15 09:25:49;;;;;;;70.38;25.55;;;7.90;99.90;;;-144.05;86.57;57029.38;5033692;28;20025;-78
2023/12/15 09:28:16;;;;;;;68.18;24.63;;;;;;;-144.05;86.67;57042.13;5048914;28;20030;-80
2023/12/15 09:30:42;;;;;;;65.80;24.35;;;;;;;-144.05;86.33;57020.88;5042291;28;20029;-78
2023/12/15 09:33:08;;;;;;;71.75;26.17;;;;;;;-144.05;86.78;57033.63;5054078;28;20515;-78
2023/12/15 09:35:34;;;;;;;62.65;25.08;;;;;;;-144.05;86.44;57029.38;5053858;28;20032;-78
2023/12/15 09:38:03;;;;;;;74.53;26.98;;;;;;;-144.05;87.18;57006.00;5053519;28;20025;-79
2023/12/15 09:40:32;;;;;;;66.85;24.45;;;;;;;-144.05;86.54;57010.25;5019835;28;20033;-76
2023/12/15 09:42:59;;;;;;;74.50;26.35;;;;;;;-144.05;86.24;57006.00;5034767;28;20520;-78
2023/12/15 09:45:25;;;;;;;72.80;24.17;;;;;;;-144.05;85.89;57018.75;5045324;28;20386;-76
2023/12/15 09:47:52;;;;;;;60.72;24.92;;;7.00;99.90;;;-144.05;86.17;57031.50;5027903;28;20089;-78
2023/12/15 09:50:25;;;;;;;66.43;25.83;;;7.10;99.90;;;-144.05;85.86;57018.75;5039572;28;20030;-78
2023/12/15 09:52:53;;;;;;;69.28;26.08;;;;;;;-144.05;86.03;57031.50;5051437;28;20029;-78
2023/12/15 09:55:19;;;;;;;63.33;24.00;;;;;;;-144.05;85.64;57061.22;5053407;28;20121;-78
2023/12/15 09:57:47;;;;;;;71.82;25.77;;;;;;;-144.05;85.16;57035.75;5035126;28;20021;-79
2023/12/15 10:00:14;;;;;;;61.33;23.73;;;;;;;-144.05;85.69;57008.13;5035742;28;20099;-76
2023/12/15 10:02:40;;;;;;;68.72;23.60;;;;;;;-144.05;85.72;57059.09;5053279;28;20474;-79
2023/12/15 10:05:07;;;;;;;66.57;25.05;;;8.10;99.90;;;-144.05;85.69;57008.13;5050462;28;20052;-76
2023/12/15 10:07:33;;;;;;;65.60;23.58;;;;;;;-144.05;85.19;57025.13;5040736;28;20116;-76
2023/12/15 10:10:00;;;;;;;59.15;24.15;;;;;;;-144.05;85.12;57014.50;5036311;28;20435;-75
2023/12/15 10:12:30;;;;;;;65.72;24.70;;;;;;;-144.05;84.69;57020.88;5036569;28;20032;-78
2023/12/15 10:14:57;;;;;;;56.30;23.00;;;7.90;99.90;;;-144.05;84.34;56997.50;5052026;28;20041;-77
2023/12/15 10:17:23;;;;;;;56.92;22.00;;;;;;;-144.05;84.07;57008.13;5030821;28;20036;-77
2023/12/15 10:19:50;;;;;;;58.50;25.60;;;;;;;-144.05;84.08;56993.25;5054312;28;20029;-77
2023/12/15 10:22:16;;;;;;;65.75;23.30;;;;;;;-144.05;84.09;57020.88;5054208;28;20031;-77
2023/12/15 10:24:42;;;;;;;58.10;23.17;;;;;;;-144.05;83.94;57029.38;5053895;28;20021;-77
2023/12/15 10:27:09;;;;;;;53.60;23.52;;;;;;;-144.05;83.54;57042.13;5038712;28;20028;-77
2023/12/15 10:29:39;;;;;;;63.80;24.85;;;;;;;-144.05;83.95;57023.00;5036761;28;20070;-76
2023/12/15 10:32:06;;;;;;;62.50;25.00;;;;;;;-144.05;85.02;57027.25;5033790;28;20387;-77
2023/12/15 10:34:32;;;;;;;76.25;27.05;;;;;;;-144.05;84.88;57033.63;5054549;28;20024;-76
2023/12/15 10:37:00;;;;;;;64.32;25.63;;;;;;;-144.05;84.44;57031.50;5056686;28;20064;-78
2023/12/15 10:39:27;;;;;;;70.47;26.48;;;;;;;-144.05;84.19;57052.75;5050675;28;20032;-76
2023/12/15 10:41:55;;;;;;;67.47;25.95;;;;;;;-144.05;84.12;57031.50;5047058;28;20029;-77
2023/12/15 10:44:24;;;;;;;68.57;26.35;;;;;;;-144.05;84.07;57023.00;5056754;28;20029;-78
2023/12/15 10:46:51;;;;;;;72.80;26.67;;;;;;;-144.05;84.07;56984.78;5039035;28;20090;-79
2023/12/15 10:49:19;;;;;;;76.47;27.40;;;8.50;99.90;;;-144.05;84.16;57018.75;5040096;28;20029;-76
2023/12/15 10:51:47;;;;;;;69.63;26.80;;;7.40;99.90;;;-144.05;84.39;57031.50;5051817;28;20029;-77
2023/12/15 10:54:17;;;;;;;71.97;28.25;;;8.60;99.90;;;-144.05;84.04;57006.00;5059996;28;20513;-76